sensor_id;sensor_type;location;lat;lon;timestamp;temperature;humidity
17639;DHT22;8938;53.546;9.954;2023-06-04T00:02:09;17.70;77.60
17639;DHT22;8938;53.546;9.954;2023-06-04T00:04:34;17.70;77.70
17639;DHT22;8938;53.546;9.954;2023-06-04T00:07:00;17.70;77.90
17639;DHT22;8938;53.546;9.954;2023-06-04T00:09:25;17.70;78.10
17639;DHT22;8938;53.546;9.954;2023-06-04T00:11:51;17.80;77.90
17639;DHT22;8938;53.546;9.954;2023-06-04T00:14:17;17.80;78.00
17639;DHT22;8938;53.546;9.954;2023-06-04T00:16:42;17.80;78.20
17639;DHT22;8938;53.546;9.954;2023-06-04T00:19:08;17.80;78.20
17639;DHT22;8938;53.546;9.954;2023-06-04T00:21:34;17.80;78.40
17639;DHT22;8938;53.546;9.954;2023-06-04T00:24:01;17.70;78.30
17639;DHT22;8938;53.546;9.954;2023-06-04T00:26:27;17.70;78.60
17639;DHT22;8938;53.546;9.954;2023-06-04T00:28:54;17.70;78.50
17639;DHT22;8938;53.546;9.954;2023-06-04T00:31:20;17.70;78.60
17639;DHT22;8938;53.546;9.954;2023-06-04T00:33:47;17.70;78.80
17639;DHT22;8938;53.546;9.954;2023-06-04T00:36:12;17.70;78.80
17639;DHT22;8938;53.546;9.954;2023-06-04T00:38:38;17.70;79.00
17639;DHT22;8938;53.546;9.954;2023-06-04T00:41:03;17.70;79.00
17639;DHT22;8938;53.546;9.954;2023-06-04T00:43:29;17.70;79.00
17639;DHT22;8938;53.546;9.954;2023-06-04T00:45:57;17.60;79.40
17639;DHT22;8938;53.546;9.954;2023-06-04T00:48:23;17.60;79.30
17639;DHT22;8938;53.546;9.954;2023-06-04T00:50:50;17.60;79.50
17639;DHT22;8938;53.546;9.954;2023-06-04T00:53:16;17.50;79.70
17639;DHT22;8938;53.546;9.954;2023-06-04T00:55:42;17.50;80.30
17639;DHT22;8938;53.546;9.954;2023-06-04T00:58:08;17.40;80.00
17639;DHT22;8938;53.546;9.954;2023-06-04T01:00:35;17.40;80.00
17639;DHT22;8938;53.546;9.954;2023-06-04T01:03:07;17.40;80.10
17639;DHT22;8938;53.546;9.954;2023-06-04T01:05:43;17.40;80.20
17639;DHT22;8938;53.546;9.954;2023-06-04T01:08:09;17.40;80.20
17639;DHT22;8938;53.546;9.954;2023-06-04T01:10:36;17.30;80.40
17639;DHT22;8938;53.546;9.954;2023-06-04T01:13:01;17.30;80.50
17639;DHT22;8938;53.546;9.954;2023-06-04T01:15:27;17.30;80.60
17639;DHT22;8938;53.546;9.954;2023-06-04T01:17:59;17.30;80.50
17639;DHT22;8938;53.546;9.954;2023-06-04T01:20:36;17.20;80.60
17639;DHT22;8938;53.546;9.954;2023-06-04T01:25:58;17.20;80.90
17639;DHT22;8938;53.546;9.954;2023-06-04T01:28:25;17.20;80.70
17639;DHT22;8938;53.546;9.954;2023-06-04T01:30:52;17.20;80.80
17639;DHT22;8938;53.546;9.954;2023-06-04T01:33:19;17.20;80.90
17639;DHT22;8938;53.546;9.954;2023-06-04T01:35:45;17.20;81.00
17639;DHT22;8938;53.546;9.954;2023-06-04T01:38:12;17.10;81.10
17639;DHT22;8938;53.546;9.954;2023-06-04T01:40:37;17.10;81.00
17639;DHT22;8938;53.546;9.954;2023-06-04T01:43:03;17.10;81.00
17639;DHT22;8938;53.546;9.954;2023-06-04T01:45:29;17.10;81.10
17639;DHT22;8938;53.546;9.954;2023-06-04T01:47:56;16.90;80.80
17639;DHT22;8938;53.546;9.954;2023-06-04T01:50:22;17.10;81.20
17639;DHT22;8938;53.546;9.954;2023-06-04T01:52:47;17.10;81.10
17639;DHT22;8938;53.546;9.954;2023-06-04T01:55:15;17.00;81.00
17639;DHT22;8938;53.546;9.954;2023-06-04T01:57:42;17.10;81.20
17639;DHT22;8938;53.546;9.954;2023-06-04T02:00:10;17.00;81.50
17639;DHT22;8938;53.546;9.954;2023-06-04T02:02:36;17.00;81.40
17639;DHT22;8938;53.546;9.954;2023-06-04T02:05:04;17.00;81.60
17639;DHT22;8938;53.546;9.954;2023-06-04T02:07:39;17.00;81.80
17639;DHT22;8938;53.546;9.954;2023-06-04T02:10:13;17.00;81.90
17639;DHT22;8938;53.546;9.954;2023-06-04T02:12:41;16.90;82.00
17639;DHT22;8938;53.546;9.954;2023-06-04T02:15:09;16.90;81.90
17639;DHT22;8938;53.546;9.954;2023-06-04T02:17:35;16.90;82.00
17639;DHT22;8938;53.546;9.954;2023-06-04T02:20:05;16.90;82.10
17639;DHT22;8938;53.546;9.954;2023-06-04T02:22:31;16.90;82.10
17639;DHT22;8938;53.546;9.954;2023-06-04T02:24:57;16.90;82.00
17639;DHT22;8938;53.546;9.954;2023-06-04T02:27:22;16.90;82.10
17639;DHT22;8938;53.546;9.954;2023-06-04T02:29:48;16.80;82.10
17639;DHT22;8938;53.546;9.954;2023-06-04T02:32:13;16.80;82.00
17639;DHT22;8938;53.546;9.954;2023-06-04T02:34:39;16.80;82.10
17639;DHT22;8938;53.546;9.954;2023-06-04T02:37:04;16.80;82.20
17639;DHT22;8938;53.546;9.954;2023-06-04T02:39:30;16.70;82.10
17639;DHT22;8938;53.546;9.954;2023-06-04T02:41:56;16.70;82.20
17639;DHT22;8938;53.546;9.954;2023-06-04T02:44:22;16.70;82.30
17639;DHT22;8938;53.546;9.954;2023-06-04T02:46:47;16.70;82.30
17639;DHT22;8938;53.546;9.954;2023-06-04T02:49:13;16.70;82.30
17639;DHT22;8938;53.546;9.954;2023-06-04T02:51:44;16.70;82.40
17639;DHT22;8938;53.546;9.954;2023-06-04T02:54:10;16.70;82.50
17639;DHT22;8938;53.546;9.954;2023-06-04T02:56:36;16.70;82.50
17639;DHT22;8938;53.546;9.954;2023-06-04T02:59:03;16.70;82.40
17639;DHT22;8938;53.546;9.954;2023-06-04T03:01:29;16.70;82.40
17639;DHT22;8938;53.546;9.954;2023-06-04T03:03:55;16.60;82.40
17639;DHT22;8938;53.546;9.954;2023-06-04T03:06:21;16.60;82.60
17639;DHT22;8938;53.546;9.954;2023-06-04T03:08:51;16.50;83.10
17639;DHT22;8938;53.546;9.954;2023-06-04T03:11:17;16.50;83.00
17639;DHT22;8938;53.546;9.954;2023-06-04T03:13:44;16.50;83.00
17639;DHT22;8938;53.546;9.954;2023-06-04T03:16:10;16.60;82.90
17639;DHT22;8938;53.546;9.954;2023-06-04T03:18:37;16.50;82.90
17639;DHT22;8938;53.546;9.954;2023-06-04T03:21:04;16.50;83.00
17639;DHT22;8938;53.546;9.954;2023-06-04T03:23:30;16.40;83.10
17639;DHT22;8938;53.546;9.954;2023-06-04T03:25:55;16.40;83.50
17639;DHT22;8938;53.546;9.954;2023-06-04T03:28:21;16.40;83.70
17639;DHT22;8938;53.546;9.954;2023-06-04T03:30:46;16.30;83.70
17639;DHT22;8938;53.546;9.954;2023-06-04T03:33:12;16.30;83.90
17639;DHT22;8938;53.546;9.954;2023-06-04T03:35:40;16.20;84.20
17639;DHT22;8938;53.546;9.954;2023-06-04T03:38:05;16.10;84.40
17639;DHT22;8938;53.546;9.954;2023-06-04T03:40:31;16.20;84.50
17639;DHT22;8938;53.546;9.954;2023-06-04T03:42:56;16.20;84.60
17639;DHT22;8938;53.546;9.954;2023-06-04T03:45:22;16.20;84.50
17639;DHT22;8938;53.546;9.954;2023-06-04T03:47:47;16.30;84.50
17639;DHT22;8938;53.546;9.954;2023-06-04T03:50:13;16.30;84.50
17639;DHT22;8938;53.546;9.954;2023-06-04T03:52:38;16.40;84.50
17639;DHT22;8938;53.546;9.954;2023-06-04T03:55:04;16.40;84.50
17639;DHT22;8938;53.546;9.954;2023-06-04T03:57:30;16.40;84.40
17639;DHT22;8938;53.546;9.954;2023-06-04T03:59:56;16.40;84.40
17639;DHT22;8938;53.546;9.954;2023-06-04T04:02:21;16.40;84.50
17639;DHT22;8938;53.546;9.954;2023-06-04T04:04:47;16.40;84.60
17639;DHT22;8938;53.546;9.954;2023-06-04T04:07:13;16.40;84.60
17639;DHT22;8938;53.546;9.954;2023-06-04T04:09:39;16.40;84.60
17639;DHT22;8938;53.546;9.954;2023-06-04T04:12:05;16.40;84.80
17639;DHT22;8938;53.546;9.954;2023-06-04T04:14:30;16.50;84.90
17639;DHT22;8938;53.546;9.954;2023-06-04T04:16:56;16.40;84.70
17639;DHT22;8938;53.546;9.954;2023-06-04T04:19:21;16.40;85.10
17639;DHT22;8938;53.546;9.954;2023-06-04T04:21:47;16.30;84.90
17639;DHT22;8938;53.546;9.954;2023-06-04T04:24:31;16.20;85.10
17639;DHT22;8938;53.546;9.954;2023-06-04T04:26:59;16.20;85.20
17639;DHT22;8938;53.546;9.954;2023-06-04T04:29:25;16.10;85.10
17639;DHT22;8938;53.546;9.954;2023-06-04T04:31:54;16.10;85.50
17639;DHT22;8938;53.546;9.954;2023-06-04T04:34:26;16.10;85.70
17639;DHT22;8938;53.546;9.954;2023-06-04T04:36:52;16.20;85.80
17639;DHT22;8938;53.546;9.954;2023-06-04T04:39:24;16.30;86.60
17639;DHT22;8938;53.546;9.954;2023-06-04T04:41:50;16.30;85.80
17639;DHT22;8938;53.546;9.954;2023-06-04T04:44:16;16.30;85.60
17639;DHT22;8938;53.546;9.954;2023-06-04T04:46:41;16.40;85.60
17639;DHT22;8938;53.546;9.954;2023-06-04T04:49:07;16.50;85.90
17639;DHT22;8938;53.546;9.954;2023-06-04T04:51:33;17.00;86.00
17639;DHT22;8938;53.546;9.954;2023-06-04T04:53:59;17.60;85.20
17639;DHT22;8938;53.546;9.954;2023-06-04T04:56:27;18.30;84.00
17639;DHT22;8938;53.546;9.954;2023-06-04T04:58:53;19.00;83.30
17639;DHT22;8938;53.546;9.954;2023-06-04T05:01:20;19.70;82.30
17639;DHT22;8938;53.546;9.954;2023-06-04T05:03:45;20.30;80.60
17639;DHT22;8938;53.546;9.954;2023-06-04T05:06:11;20.70;79.70
17639;DHT22;8938;53.546;9.954;2023-06-04T05:08:36;21.00;79.50
17639;DHT22;8938;53.546;9.954;2023-06-04T05:11:02;21.30;78.60
17639;DHT22;8938;53.546;9.954;2023-06-04T05:13:27;21.50;78.60
17639;DHT22;8938;53.546;9.954;2023-06-04T05:15:53;21.70;77.60
17639;DHT22;8938;53.546;9.954;2023-06-04T05:18:19;21.40;77.20
17639;DHT22;8938;53.546;9.954;2023-06-04T05:20:54;20.50;77.80
17639;DHT22;8938;53.546;9.954;2023-06-04T05:23:20;19.70;79.90
17639;DHT22;8938;53.546;9.954;2023-06-04T05:25:46;19.10;81.00
17639;DHT22;8938;53.546;9.954;2023-06-04T05:28:14;18.70;82.00
17639;DHT22;8938;53.546;9.954;2023-06-04T05:30:40;18.40;82.90
17639;DHT22;8938;53.546;9.954;2023-06-04T05:33:07;18.20;83.80
17639;DHT22;8938;53.546;9.954;2023-06-04T05:35:34;18.10;84.00
17639;DHT22;8938;53.546;9.954;2023-06-04T05:38:00;17.90;84.50
17639;DHT22;8938;53.546;9.954;2023-06-04T05:40:26;17.70;85.00
17639;DHT22;8938;53.546;9.954;2023-06-04T05:42:51;17.60;85.50
17639;DHT22;8938;53.546;9.954;2023-06-04T05:45:17;17.50;85.80
17639;DHT22;8938;53.546;9.954;2023-06-04T05:47:42;17.40;86.20
17639;DHT22;8938;53.546;9.954;2023-06-04T05:50:08;17.40;86.50
17639;DHT22;8938;53.546;9.954;2023-06-04T05:52:34;17.40;86.70
17639;DHT22;8938;53.546;9.954;2023-06-04T05:55:02;17.40;87.10
17639;DHT22;8938;53.546;9.954;2023-06-04T05:57:27;17.10;87.50
17639;DHT22;8938;53.546;9.954;2023-06-04T05:59:53;17.10;87.90
17639;DHT22;8938;53.546;9.954;2023-06-04T06:02:18;17.10;88.40
17639;DHT22;8938;53.546;9.954;2023-06-04T06:04:44;17.20;88.40
17639;DHT22;8938;53.546;9.954;2023-06-04T06:07:09;17.30;88.30
17639;DHT22;8938;53.546;9.954;2023-06-04T06:09:35;17.40;88.30
17639;DHT22;8938;53.546;9.954;2023-06-04T06:12:01;17.40;88.20
17639;DHT22;8938;53.546;9.954;2023-06-04T06:14:27;17.40;88.50
17639;DHT22;8938;53.546;9.954;2023-06-04T06:16:52;17.50;88.30
17639;DHT22;8938;53.546;9.954;2023-06-04T06:19:18;17.50;88.40
17639;DHT22;8938;53.546;9.954;2023-06-04T06:21:44;17.60;88.50
17639;DHT22;8938;53.546;9.954;2023-06-04T06:24:10;17.50;88.60
17639;DHT22;8938;53.546;9.954;2023-06-04T06:26:35;17.50;88.80
17639;DHT22;8938;53.546;9.954;2023-06-04T06:29:01;17.50;88.80
17639;DHT22;8938;53.546;9.954;2023-06-04T06:31:27;17.60;88.80
17639;DHT22;8938;53.546;9.954;2023-06-04T06:33:52;17.70;89.00
17639;DHT22;8938;53.546;9.954;2023-06-04T06:36:18;17.70;88.90
17639;DHT22;8938;53.546;9.954;2023-06-04T06:38:44;17.80;89.30
17639;DHT22;8938;53.546;9.954;2023-06-04T06:41:10;17.90;89.10
17639;DHT22;8938;53.546;9.954;2023-06-04T06:43:36;17.90;89.00
17639;DHT22;8938;53.546;9.954;2023-06-04T06:46:02;18.00;88.70
17639;DHT22;8938;53.546;9.954;2023-06-04T06:48:27;18.10;88.80
17639;DHT22;8938;53.546;9.954;2023-06-04T06:50:54;18.10;88.60
17639;DHT22;8938;53.546;9.954;2023-06-04T06:53:19;18.10;88.30
17639;DHT22;8938;53.546;9.954;2023-06-04T06:55:45;18.10;88.10
17639;DHT22;8938;53.546;9.954;2023-06-04T06:58:11;18.10;88.30
17639;DHT22;8938;53.546;9.954;2023-06-04T07:00:36;18.20;88.10
17639;DHT22;8938;53.546;9.954;2023-06-04T07:03:02;18.30;88.20
17639;DHT22;8938;53.546;9.954;2023-06-04T07:05:28;18.40;88.30
17639;DHT22;8938;53.546;9.954;2023-06-04T07:07:53;18.60;88.10
17639;DHT22;8938;53.546;9.954;2023-06-04T07:10:19;18.70;88.00
17639;DHT22;8938;53.546;9.954;2023-06-04T07:12:45;18.80;87.50
17639;DHT22;8938;53.546;9.954;2023-06-04T07:15:10;18.80;86.50
17639;DHT22;8938;53.546;9.954;2023-06-04T07:17:36;18.80;87.00
17639;DHT22;8938;53.546;9.954;2023-06-04T07:20:02;19.00;86.40
17639;DHT22;8938;53.546;9.954;2023-06-04T07:22:32;19.10;86.40
17639;DHT22;8938;53.546;9.954;2023-06-04T07:24:57;19.20;86.40
17639;DHT22;8938;53.546;9.954;2023-06-04T07:27:23;19.30;86.40
17639;DHT22;8938;53.546;9.954;2023-06-04T07:29:49;19.40;86.20
17639;DHT22;8938;53.546;9.954;2023-06-04T07:32:14;19.40;85.90
17639;DHT22;8938;53.546;9.954;2023-06-04T07:34:40;19.40;85.70
17639;DHT22;8938;53.546;9.954;2023-06-04T07:37:06;19.50;85.80
17639;DHT22;8938;53.546;9.954;2023-06-04T07:39:31;19.60;85.70
17639;DHT22;8938;53.546;9.954;2023-06-04T07:41:57;19.70;85.00
17639;DHT22;8938;53.546;9.954;2023-06-04T07:44:22;19.70;84.60
17639;DHT22;8938;53.546;9.954;2023-06-04T07:46:48;19.90;84.70
17639;DHT22;8938;53.546;9.954;2023-06-04T07:49:14;19.90;83.80
17639;DHT22;8938;53.546;9.954;2023-06-04T07:51:40;20.00;83.80
17639;DHT22;8938;53.546;9.954;2023-06-04T07:54:06;20.00;83.60
17639;DHT22;8938;53.546;9.954;2023-06-04T07:56:31;20.20;83.30
17639;DHT22;8938;53.546;9.954;2023-06-04T07:58:57;20.30;83.10
17639;DHT22;8938;53.546;9.954;2023-06-04T08:01:22;20.30;82.70
17639;DHT22;8938;53.546;9.954;2023-06-04T08:03:49;20.40;82.30
17639;DHT22;8938;53.546;9.954;2023-06-04T08:06:15;20.50;81.80
17639;DHT22;8938;53.546;9.954;2023-06-04T08:08:44;20.50;80.80
17639;DHT22;8938;53.546;9.954;2023-06-04T08:11:15;20.50;80.10
17639;DHT22;8938;53.546;9.954;2023-06-04T08:13:41;20.60;79.20
17639;DHT22;8938;53.546;9.954;2023-06-04T08:16:07;20.60;79.40
17639;DHT22;8938;53.546;9.954;2023-06-04T08:18:38;20.80;79.90
17639;DHT22;8938;53.546;9.954;2023-06-04T08:21:04;21.00;79.70
17639;DHT22;8938;53.546;9.954;2023-06-04T08:23:29;21.10;79.60
17639;DHT22;8938;53.546;9.954;2023-06-04T08:25:55;21.20;78.90
17639;DHT22;8938;53.546;9.954;2023-06-04T08:28:20;21.30;78.50
17639;DHT22;8938;53.546;9.954;2023-06-04T08:30:46;21.30;78.00
17639;DHT22;8938;53.546;9.954;2023-06-04T08:33:11;21.40;77.50
17639;DHT22;8938;53.546;9.954;2023-06-04T08:35:37;21.50;76.90
17639;DHT22;8938;53.546;9.954;2023-06-04T08:38:03;21.60;77.00
17639;DHT22;8938;53.546;9.954;2023-06-04T08:40:28;21.70;76.90
17639;DHT22;8938;53.546;9.954;2023-06-04T08:42:55;21.60;75.60
17639;DHT22;8938;53.546;9.954;2023-06-04T08:45:23;21.70;76.10
17639;DHT22;8938;53.546;9.954;2023-06-04T08:47:50;21.80;76.20
17639;DHT22;8938;53.546;9.954;2023-06-04T08:50:24;21.90;75.40
17639;DHT22;8938;53.546;9.954;2023-06-04T08:52:53;21.90;75.30
17639;DHT22;8938;53.546;9.954;2023-06-04T08:55:19;21.90;74.70
17639;DHT22;8938;53.546;9.954;2023-06-04T08:57:45;22.00;74.20
17639;DHT22;8938;53.546;9.954;2023-06-04T09:00:11;22.00;73.70
17639;DHT22;8938;53.546;9.954;2023-06-04T09:02:38;22.00;72.60
17639;DHT22;8938;53.546;9.954;2023-06-04T09:05:04;22.10;73.30
17639;DHT22;8938;53.546;9.954;2023-06-04T09:07:35;22.30;73.10
17639;DHT22;8938;53.546;9.954;2023-06-04T09:10:02;22.40;72.70
17639;DHT22;8938;53.546;9.954;2023-06-04T09:12:28;22.60;72.00
17639;DHT22;8938;53.546;9.954;2023-06-04T09:14:54;23.80;70.90
17639;DHT22;8938;53.546;9.954;2023-06-04T09:17:23;26.10;70.30
17639;DHT22;8938;53.546;9.954;2023-06-04T09:19:50;28.10;67.50
17639;DHT22;8938;53.546;9.954;2023-06-04T09:22:16;29.50;63.80
17639;DHT22;8938;53.546;9.954;2023-06-04T09:24:44;30.40;60.80
17639;DHT22;8938;53.546;9.954;2023-06-04T09:27:16;31.40;61.10
17639;DHT22;8938;53.546;9.954;2023-06-04T09:29:53;32.30;59.70
17639;DHT22;8938;53.546;9.954;2023-06-04T09:32:25;33.00;58.30
17639;DHT22;8938;53.546;9.954;2023-06-04T09:34:52;33.20;57.00
17639;DHT22;8938;53.546;9.954;2023-06-04T09:37:18;33.50;55.90
17639;DHT22;8938;53.546;9.954;2023-06-04T09:39:55;33.50;54.80
17639;DHT22;8938;53.546;9.954;2023-06-04T09:42:21;33.20;54.20
17639;DHT22;8938;53.546;9.954;2023-06-04T09:44:47;33.10;54.00
17639;DHT22;8938;53.546;9.954;2023-06-04T09:47:13;32.80;54.20
17639;DHT22;8938;53.546;9.954;2023-06-04T09:49:46;33.10;54.70
17639;DHT22;8938;53.546;9.954;2023-06-04T09:52:13;33.10;53.70
17639;DHT22;8938;53.546;9.954;2023-06-04T09:54:40;33.40;53.60
17639;DHT22;8938;53.546;9.954;2023-06-04T09:57:17;33.40;52.30
17639;DHT22;8938;53.546;9.954;2023-06-04T09:59:45;33.10;52.90
17639;DHT22;8938;53.546;9.954;2023-06-04T10:02:19;33.00;53.50
17639;DHT22;8938;53.546;9.954;2023-06-04T10:04:53;32.80;53.10
17639;DHT22;8938;53.546;9.954;2023-06-04T10:07:21;32.50;53.50
17639;DHT22;8938;53.546;9.954;2023-06-04T10:09:47;32.40;53.60
17639;DHT22;8938;53.546;9.954;2023-06-04T10:12:16;32.60;53.80
17639;DHT22;8938;53.546;9.954;2023-06-04T10:14:56;32.70;54.50
17639;DHT22;8938;53.546;9.954;2023-06-04T10:17:25;32.90;54.00
17639;DHT22;8938;53.546;9.954;2023-06-04T10:19:52;33.00;53.60
17639;DHT22;8938;53.546;9.954;2023-06-04T10:22:20;33.10;52.90
17639;DHT22;8938;53.546;9.954;2023-06-04T10:24:46;32.70;52.60
17639;DHT22;8938;53.546;9.954;2023-06-04T10:27:12;32.40;53.30
17639;DHT22;8938;53.546;9.954;2023-06-04T10:29:39;31.90;52.30
17639;DHT22;8938;53.546;9.954;2023-06-04T10:32:05;31.50;53.20
17639;DHT22;8938;53.546;9.954;2023-06-04T10:34:31;31.30;52.90
17639;DHT22;8938;53.546;9.954;2023-06-04T10:36:57;30.80;52.80
17639;DHT22;8938;53.546;9.954;2023-06-04T10:39:27;30.40;53.50
17639;DHT22;8938;53.546;9.954;2023-06-04T10:42:01;30.20;53.90
17639;DHT22;8938;53.546;9.954;2023-06-04T10:44:26;29.90;54.20
17639;DHT22;8938;53.546;9.954;2023-06-04T10:46:52;29.80;54.40
17639;DHT22;8938;53.546;9.954;2023-06-04T10:49:26;29.60;55.00
17639;DHT22;8938;53.546;9.954;2023-06-04T10:51:52;29.00;55.40
17639;DHT22;8938;53.546;9.954;2023-06-04T10:54:25;28.50;55.60
17639;DHT22;8938;53.546;9.954;2023-06-04T10:56:51;27.80;56.80
17639;DHT22;8938;53.546;9.954;2023-06-04T10:59:17;27.30;57.00
17639;DHT22;8938;53.546;9.954;2023-06-04T11:01:43;26.80;58.10
17639;DHT22;8938;53.546;9.954;2023-06-04T11:04:35;26.30;58.80
17639;DHT22;8938;53.546;9.954;2023-06-04T11:07:06;25.90;60.10
17639;DHT22;8938;53.546;9.954;2023-06-04T11:09:48;25.60;60.10
17639;DHT22;8938;53.546;9.954;2023-06-04T11:12:14;25.40;61.20
17639;DHT22;8938;53.546;9.954;2023-06-04T11:14:39;25.40;60.80
17639;DHT22;8938;53.546;9.954;2023-06-04T11:17:09;25.30;61.10
17639;DHT22;8938;53.546;9.954;2023-06-04T11:19:36;25.20;61.30
17639;DHT22;8938;53.546;9.954;2023-06-04T11:22:03;25.20;61.10
17639;DHT22;8938;53.546;9.954;2023-06-04T11:24:29;25.10;60.90
17639;DHT22;8938;53.546;9.954;2023-06-04T11:26:57;25.00;61.00
17639;DHT22;8938;53.546;9.954;2023-06-04T11:29:24;24.90;61.30
17639;DHT22;8938;53.546;9.954;2023-06-04T11:31:50;24.80;61.60
17639;DHT22;8938;53.546;9.954;2023-06-04T11:34:30;24.70;61.90
17639;DHT22;8938;53.546;9.954;2023-06-04T11:37:10;24.70;61.70
17639;DHT22;8938;53.546;9.954;2023-06-04T11:39:36;24.80;61.80
17639;DHT22;8938;53.546;9.954;2023-06-04T11:42:07;24.90;62.00
17639;DHT22;8938;53.546;9.954;2023-06-04T11:44:33;24.80;62.40
17639;DHT22;8938;53.546;9.954;2023-06-04T11:46:59;24.90;62.20
17639;DHT22;8938;53.546;9.954;2023-06-04T11:49:25;24.90;62.40
17639;DHT22;8938;53.546;9.954;2023-06-04T11:51:53;25.00;62.70
17639;DHT22;8938;53.546;9.954;2023-06-04T11:54:20;25.10;62.40
17639;DHT22;8938;53.546;9.954;2023-06-04T11:56:48;25.10;61.90
17639;DHT22;8938;53.546;9.954;2023-06-04T11:59:15;25.00;62.10
17639;DHT22;8938;53.546;9.954;2023-06-04T12:01:45;25.20;62.30
17639;DHT22;8938;53.546;9.954;2023-06-04T12:04:15;25.20;61.70
17639;DHT22;8938;53.546;9.954;2023-06-04T12:07:11;25.10;62.10
17639;DHT22;8938;53.546;9.954;2023-06-04T12:09:37;25.30;62.50
17639;DHT22;8938;53.546;9.954;2023-06-04T12:12:07;25.50;62.60
17639;DHT22;8938;53.546;9.954;2023-06-04T12:14:33;25.70;62.80
17639;DHT22;8938;53.546;9.954;2023-06-04T12:17:06;25.80;62.50
17639;DHT22;8938;53.546;9.954;2023-06-04T12:19:32;25.90;62.10
17639;DHT22;8938;53.546;9.954;2023-06-04T12:22:03;25.90;62.20
17639;DHT22;8938;53.546;9.954;2023-06-04T12:24:34;26.00;62.90
17639;DHT22;8938;53.546;9.954;2023-06-04T12:27:06;26.00;62.10
17639;DHT22;8938;53.546;9.954;2023-06-04T12:29:34;26.00;62.20
17639;DHT22;8938;53.546;9.954;2023-06-04T12:32:04;26.10;62.20
17639;DHT22;8938;53.546;9.954;2023-06-04T12:34:31;26.10;62.10
17639;DHT22;8938;53.546;9.954;2023-06-04T12:36:57;26.20;62.50
17639;DHT22;8938;53.546;9.954;2023-06-04T12:39:22;26.20;62.00
17639;DHT22;8938;53.546;9.954;2023-06-04T12:41:48;26.20;62.30
17639;DHT22;8938;53.546;9.954;2023-06-04T12:44:14;26.20;61.90
17639;DHT22;8938;53.546;9.954;2023-06-04T12:46:40;26.30;62.00
17639;DHT22;8938;53.546;9.954;2023-06-04T12:49:05;26.40;62.00
17639;DHT22;8938;53.546;9.954;2023-06-04T12:51:31;26.40;62.00
17639;DHT22;8938;53.546;9.954;2023-06-04T12:53:57;26.50;61.10
17639;DHT22;8938;53.546;9.954;2023-06-04T12:56:23;26.50;60.90
17639;DHT22;8938;53.546;9.954;2023-06-04T12:58:49;26.40;61.20
17639;DHT22;8938;53.546;9.954;2023-06-04T13:01:15;26.40;61.40
17639;DHT22;8938;53.546;9.954;2023-06-04T13:03:40;26.50;61.70
17639;DHT22;8938;53.546;9.954;2023-06-04T13:06:06;26.60;61.00
17639;DHT22;8938;53.546;9.954;2023-06-04T13:08:32;26.50;60.20
17639;DHT22;8938;53.546;9.954;2023-06-04T13:10:58;26.50;60.30
17639;DHT22;8938;53.546;9.954;2023-06-04T13:13:24;26.50;60.70
17639;DHT22;8938;53.546;9.954;2023-06-04T13:15:49;26.60;60.40
17639;DHT22;8938;53.546;9.954;2023-06-04T13:18:15;26.50;60.50
17639;DHT22;8938;53.546;9.954;2023-06-04T13:20:41;26.50;60.00
17639;DHT22;8938;53.546;9.954;2023-06-04T13:23:07;26.40;60.00
17639;DHT22;8938;53.546;9.954;2023-06-04T13:25:33;26.40;60.20
17639;DHT22;8938;53.546;9.954;2023-06-04T13:28:00;26.40;60.10
17639;DHT22;8938;53.546;9.954;2023-06-04T13:30:25;26.20;59.50
17639;DHT22;8938;53.546;9.954;2023-06-04T13:32:53;26.10;59.70
17639;DHT22;8938;53.546;9.954;2023-06-04T13:35:19;26.10;60.20
17639;DHT22;8938;53.546;9.954;2023-06-04T13:37:44;26.10;60.80
17639;DHT22;8938;53.546;9.954;2023-06-04T13:40:10;26.20;60.90
17639;DHT22;8938;53.546;9.954;2023-06-04T13:42:36;26.20;60.50
17639;DHT22;8938;53.546;9.954;2023-06-04T13:45:02;26.10;60.10
17639;DHT22;8938;53.546;9.954;2023-06-04T13:47:27;26.00;60.60
17639;DHT22;8938;53.546;9.954;2023-06-04T13:49:53;26.10;61.00
17639;DHT22;8938;53.546;9.954;2023-06-04T13:52:18;26.00;60.50
17639;DHT22;8938;53.546;9.954;2023-06-04T13:54:44;26.00;60.70
17639;DHT22;8938;53.546;9.954;2023-06-04T13:57:10;25.90;60.70
17639;DHT22;8938;53.546;9.954;2023-06-04T13:59:38;26.00;61.00
17639;DHT22;8938;53.546;9.954;2023-06-04T14:02:04;25.90;60.90
17639;DHT22;8938;53.546;9.954;2023-06-04T14:04:30;25.90;61.10
17639;DHT22;8938;53.546;9.954;2023-06-04T14:06:56;25.90;60.70
17639;DHT22;8938;53.546;9.954;2023-06-04T14:09:21;25.80;60.60
17639;DHT22;8938;53.546;9.954;2023-06-04T14:11:47;25.80;60.90
17639;DHT22;8938;53.546;9.954;2023-06-04T14:14:16;25.90;61.00
17639;DHT22;8938;53.546;9.954;2023-06-04T14:16:43;25.90;60.80
17639;DHT22;8938;53.546;9.954;2023-06-04T14:19:08;25.90;60.40
17639;DHT22;8938;53.546;9.954;2023-06-04T14:21:34;26.00;60.80
17639;DHT22;8938;53.546;9.954;2023-06-04T14:24:00;25.90;61.00
17639;DHT22;8938;53.546;9.954;2023-06-04T14:26:26;25.90;61.20
17639;DHT22;8938;53.546;9.954;2023-06-04T14:28:51;25.90;61.50
17639;DHT22;8938;53.546;9.954;2023-06-04T14:31:17;26.00;61.50
17639;DHT22;8938;53.546;9.954;2023-06-04T14:33:43;25.90;61.90
17639;DHT22;8938;53.546;9.954;2023-06-04T14:36:08;25.90;61.60
17639;DHT22;8938;53.546;9.954;2023-06-04T14:38:34;25.60;61.50
17639;DHT22;8938;53.546;9.954;2023-06-04T14:40:59;25.60;61.90
17639;DHT22;8938;53.546;9.954;2023-06-04T14:43:25;25.50;62.20
17639;DHT22;8938;53.546;9.954;2023-06-04T14:45:50;25.80;62.60
17639;DHT22;8938;53.546;9.954;2023-06-04T14:48:16;25.80;62.40
17639;DHT22;8938;53.546;9.954;2023-06-04T14:50:42;25.80;62.10
17639;DHT22;8938;53.546;9.954;2023-06-04T14:53:08;25.90;62.30
17639;DHT22;8938;53.546;9.954;2023-06-04T14:55:34;25.80;62.10
17639;DHT22;8938;53.546;9.954;2023-06-04T14:58:00;25.80;62.20
17639;DHT22;8938;53.546;9.954;2023-06-04T15:00:25;25.80;62.10
17639;DHT22;8938;53.546;9.954;2023-06-04T15:02:51;25.70;62.50
17639;DHT22;8938;53.546;9.954;2023-06-04T15:05:16;25.60;61.60
17639;DHT22;8938;53.546;9.954;2023-06-04T15:07:42;25.60;62.40
17639;DHT22;8938;53.546;9.954;2023-06-04T15:10:08;25.60;63.00
17639;DHT22;8938;53.546;9.954;2023-06-04T15:12:34;25.60;62.60
17639;DHT22;8938;53.546;9.954;2023-06-04T15:15:06;25.70;62.60
17639;DHT22;8938;53.546;9.954;2023-06-04T15:17:36;25.70;62.80
17639;DHT22;8938;53.546;9.954;2023-06-04T15:20:03;25.70;62.40
17639;DHT22;8938;53.546;9.954;2023-06-04T15:22:29;25.70;62.20
17639;DHT22;8938;53.546;9.954;2023-06-04T15:24:54;25.50;62.30
17639;DHT22;8938;53.546;9.954;2023-06-04T15:27:20;25.40;62.30
17639;DHT22;8938;53.546;9.954;2023-06-04T15:29:46;25.40;62.40
17639;DHT22;8938;53.546;9.954;2023-06-04T15:32:11;25.30;62.50
17639;DHT22;8938;53.546;9.954;2023-06-04T15:34:37;25.30;62.70
17639;DHT22;8938;53.546;9.954;2023-06-04T15:37:03;25.30;62.90
17639;DHT22;8938;53.546;9.954;2023-06-04T15:39:28;25.30;63.10
17639;DHT22;8938;53.546;9.954;2023-06-04T15:41:54;25.20;63.30
17639;DHT22;8938;53.546;9.954;2023-06-04T15:44:19;25.20;64.20
17639;DHT22;8938;53.546;9.954;2023-06-04T15:46:45;25.10;64.20